sensor_id;sensor_type;location;lat;lon;timestamp;pressure;altitude;pressure_sealevel;temperature;humidity
71107;BME280;58763;47.982;11.516;2022-09-09T00:02:23;93980.19;;;15.77;69.94
71107;BME280;58763;47.982;11.516;2022-09-09T00:05:17;93973.09;;;15.76;69.76
71107;BME280;58763;47.982;11.516;2022-09-09T00:07:52;93979.53;;;15.72;70.34
71107;BME280;58763;47.982;11.516;2022-09-09T00:10:29;93983.38;;;15.71;70.34
71107;BME280;58763;47.982;11.516;2022-09-09T00:16:04;93984.50;;;15.78;70.31
71107;BME280;58763;47.982;11.516;2022-09-09T00:18:57;93971.31;;;15.80;70.42
71107;BME280;58763;47.982;11.516;2022-09-09T00:21:37;93982.72;;;15.82;70.61
71107;BME280;58763;47.982;11.516;2022-09-09T00:24:30;93982.56;;;15.87;70.42
71107;BME280;58763;47.982;11.516;2022-09-09T00:27:04;93977.56;;;15.89;69.95
71107;BME280;58763;47.982;11.516;2022-09-09T00:30:32;93985.78;;;15.81;70.69
71107;BME280;58763;47.982;11.516;2022-09-09T00:32:29;93993.63;;;15.82;70.52
71107;BME280;58763;47.982;11.516;2022-09-09T00:35:01;93985.28;;;15.62;71.56
71107;BME280;58763;47.982;11.516;2022-09-09T00:37:29;93979.38;;;15.60;72.05
71107;BME280;58763;47.982;11.516;2022-09-09T00:39:59;93987.38;;;15.48;72.24
71107;BME280;58763;47.982;11.516;2022-09-09T00:42:40;93984.00;;;15.42;72.77
71107;BME280;58763;47.982;11.516;2022-09-09T00:48:03;93995.53;;;15.39;72.97
71107;BME280;58763;47.982;11.516;2022-09-09T00:50:45;93996.97;;;15.37;73.09
71107;BME280;58763;47.982;11.516;2022-09-09T00:56:37;93993.13;;;15.38;73.29
71107;BME280;58763;47.982;11.516;2022-09-09T01:01:35;93999.88;;;15.40;73.34
71107;BME280;58763;47.982;11.516;2022-09-09T01:04:05;93981.44;;;15.37;73.32
71107;BME280;58763;47.982;11.516;2022-09-09T01:06:36;93984.31;;;15.41;73.07
71107;BME280;58763;47.982;11.516;2022-09-09T01:09:19;93984.34;;;15.49;72.81
71107;BME280;58763;47.982;11.516;2022-09-09T01:12:15;93991.72;;;15.49;73.06
71107;BME280;58763;47.982;11.516;2022-09-09T01:14:48;93989.00;;;15.49;72.67
71107;BME280;58763;47.982;11.516;2022-09-09T01:25:15;94001.16;;;15.60;72.97
71107;BME280;58763;47.982;11.516;2022-09-09T01:27:46;93994.91;;;15.59;73.10
71107;BME280;58763;47.982;11.516;2022-09-09T01:30:16;93993.66;;;15.65;72.61
71107;BME280;58763;47.982;11.516;2022-09-09T01:32:52;93996.69;;;15.64;72.65
71107;BME280;58763;47.982;11.516;2022-09-09T01:37:55;93993.00;;;15.60;73.04
71107;BME280;58763;47.982;11.516;2022-09-09T01:40:21;93992.34;;;15.54;73.60
71107;BME280;58763;47.982;11.516;2022-09-09T01:42:47;93987.69;;;15.55;73.35
71107;BME280;58763;47.982;11.516;2022-09-09T01:45:13;93984.50;;;15.53;73.15
71107;BME280;58763;47.982;11.516;2022-09-09T01:47:39;93980.00;;;15.48;73.82
71107;BME280;58763;47.982;11.516;2022-09-09T01:50:07;93983.38;;;15.54;73.50
71107;BME280;58763;47.982;11.516;2022-09-09T01:52:36;93980.66;;;15.54;73.42
71107;BME280;58763;47.982;11.516;2022-09-09T01:55:03;93987.69;;;15.55;73.39
71107;BME280;58763;47.982;11.516;2022-09-09T02:00:44;93982.59;;;15.45;73.11
71107;BME280;58763;47.982;11.516;2022-09-09T02:03:35;93982.59;;;15.45;73.50
71107;BME280;58763;47.982;11.516;2022-09-09T02:06:35;93985.25;;;15.36;73.62
71107;BME280;58763;47.982;11.516;2022-09-09T02:09:07;93969.41;;;15.30;73.89
71107;BME280;58763;47.982;11.516;2022-09-09T02:11:35;93971.13;;;15.17;74.42
71107;BME280;58763;47.982;11.516;2022-09-09T02:14:10;93971.47;;;15.15;74.68
71107;BME280;58763;47.982;11.516;2022-09-09T02:16:41;93975.81;;;15.16;74.18
71107;BME280;58763;47.982;11.516;2022-09-09T02:19:12;93972.09;;;15.12;74.53
71107;BME280;58763;47.982;11.516;2022-09-09T02:21:39;93973.38;;;15.06;74.79
71107;BME280;58763;47.982;11.516;2022-09-09T02:24:08;93977.53;;;15.04;75.18
71107;BME280;58763;47.982;11.516;2022-09-09T02:26:39;93975.78;;;14.99;75.63
71107;BME280;58763;47.982;11.516;2022-09-09T02:29:10;93974.16;;;14.98;76.09
71107;BME280;58763;47.982;11.516;2022-09-09T02:31:39;93975.00;;;15.07;75.27
71107;BME280;58763;47.982;11.516;2022-09-09T02:34:09;93968.09;;;15.10;75.64
71107;BME280;58763;47.982;11.516;2022-09-09T02:36:38;93978.34;;;15.13;75.07
71107;BME280;58763;47.982;11.516;2022-09-09T02:39:07;93967.16;;;15.14;75.29
71107;BME280;58763;47.982;11.516;2022-09-09T02:41:35;93965.53;;;15.13;75.27
71107;BME280;58763;47.982;11.516;2022-09-09T02:44:05;93955.28;;;15.10;75.13
71107;BME280;58763;47.982;11.516;2022-09-09T02:46:44;93951.59;;;15.06;75.50
71107;BME280;58763;47.982;11.516;2022-09-09T02:49:29;93956.88;;;15.11;75.32
71107;BME280;58763;47.982;11.516;2022-09-09T02:52:08;93956.25;;;15.14;75.48
71107;BME280;58763;47.982;11.516;2022-09-09T02:54:41;93953.69;;;15.18;74.95
71107;BME280;58763;47.982;11.516;2022-09-09T02:57:22;93958.47;;;15.12;75.52
71107;BME280;58763;47.982;11.516;2022-09-09T02:59:49;93954.66;;;15.05;75.45
71107;BME280;58763;47.982;11.516;2022-09-09T03:02:15;93963.44;;;15.02;75.56
71107;BME280;58763;47.982;11.516;2022-09-09T03:04:41;93953.31;;;14.94;75.98
71107;BME280;58763;47.982;11.516;2022-09-09T03:07:10;93951.59;;;14.98;76.18
71107;BME280;58763;47.982;11.516;2022-09-09T03:09:36;93949.69;;;15.07;75.48
71107;BME280;58763;47.982;11.516;2022-09-09T03:12:01;93944.22;;;15.07;75.46
71107;BME280;58763;47.982;11.516;2022-09-09T03:14:29;93945.03;;;15.07;75.20
71107;BME280;58763;47.982;11.516;2022-09-09T03:16:55;93943.75;;;15.13;75.26
71107;BME280;58763;47.982;11.516;2022-09-09T03:19:23;93942.31;;;15.16;74.59
71107;BME280;58763;47.982;11.516;2022-09-09T03:21:48;93944.06;;;15.20;74.99
71107;BME280;58763;47.982;11.516;2022-09-09T03:24:14;93953.38;;;15.28;74.49
71107;BME280;58763;47.982;11.516;2022-09-09T03:26:41;93956.59;;;15.30;74.44
71107;BME280;58763;47.982;11.516;2022-09-09T03:29:10;93958.50;;;15.38;74.05
71107;BME280;58763;47.982;11.516;2022-09-09T03:31:38;93955.28;;;15.36;73.57
71107;BME280;58763;47.982;11.516;2022-09-09T03:34:03;93955.78;;;15.38;73.84
71107;BME280;58763;47.982;11.516;2022-09-09T03:36:30;93950.81;;;15.40;73.43
71107;BME280;58763;47.982;11.516;2022-09-09T03:38:55;93955.63;;;15.43;73.11
71107;BME280;58763;47.982;11.516;2022-09-09T03:41:22;93959.97;;;15.44;73.24
71107;BME280;58763;47.982;11.516;2022-09-09T03:43:52;93954.53;;;15.44;73.71
71107;BME280;58763;47.982;11.516;2022-09-09T03:46:23;93954.19;;;15.46;73.60
71107;BME280;58763;47.982;11.516;2022-09-09T03:48:49;93951.94;;;15.39;73.66
71107;BME280;58763;47.982;11.516;2022-09-09T03:51:15;93946.84;;;15.46;73.27
71107;BME280;58763;47.982;11.516;2022-09-09T03:53:41;93953.22;;;15.33;73.87
71107;BME280;58763;47.982;11.516;2022-09-09T03:56:07;93951.94;;;15.31;73.86
71107;BME280;58763;47.982;11.516;2022-09-09T03:58:33;93951.28;;;15.34;73.58
71107;BME280;58763;47.982;11.516;2022-09-09T04:01:10;93951.63;;;15.32;73.41
71107;BME280;58763;47.982;11.516;2022-09-09T04:03:39;93950.00;;;15.31;73.77
71107;BME280;58763;47.982;11.516;2022-09-09T04:06:06;93945.50;;;15.27;73.59
71107;BME280;58763;47.982;11.516;2022-09-09T04:08:33;93949.03;;;15.27;73.93
71107;BME280;58763;47.982;11.516;2022-09-09T04:10:59;93950.63;;;15.19;74.27
71107;BME280;58763;47.982;11.516;2022-09-09T04:13:27;93943.13;;;15.25;74.07
71107;BME280;58763;47.982;11.516;2022-09-09T04:15:55;93947.13;;;15.36;73.67
71107;BME280;58763;47.982;11.516;2022-09-09T04:18:22;93935.59;;;15.39;73.50
71107;BME280;58763;47.982;11.516;2022-09-09T04:20:51;93930.13;;;15.39;73.37
71107;BME280;58763;47.982;11.516;2022-09-09T04:23:18;93927.88;;;15.41;73.21
71107;BME280;58763;47.982;11.516;2022-09-09T04:25:46;93920.34;;;15.38;73.82
71107;BME280;58763;47.982;11.516;2022-09-09T04:28:13;93919.06;;;15.36;73.58
71107;BME280;58763;47.982;11.516;2022-09-09T04:30:39;93919.56;;;15.29;73.94
71107;BME280;58763;47.982;11.516;2022-09-09T04:33:06;93927.28;;;15.44;73.20
71107;BME280;58763;47.982;11.516;2022-09-09T04:35:32;93929.84;;;15.49;72.74
71107;BME280;58763;47.982;11.516;2022-09-09T04:37:58;93935.47;;;15.44;73.48
71107;BME280;58763;47.982;11.516;2022-09-09T04:40:23;93934.47;;;15.40;73.25
71107;BME280;58763;47.982;11.516;2022-09-09T04:42:50;93925.00;;;15.29;73.02
71107;BME280;58763;47.982;11.516;2022-09-09T04:45:15;93914.75;;;15.35;73.01
71107;BME280;58763;47.982;11.516;2022-09-09T04:47:41;93916.69;;;15.26;73.07
71107;BME280;58763;47.982;11.516;2022-09-09T04:50:08;93923.09;;;15.21;73.13
71107;BME280;58763;47.982;11.516;2022-09-09T04:52:35;93912.84;;;15.18;73.26
71107;BME280;58763;47.982;11.516;2022-09-09T04:55:01;93925.00;;;15.20;72.95
71107;BME280;58763;47.982;11.516;2022-09-09T04:57:27;93923.91;;;15.21;73.12
71107;BME280;58763;47.982;11.516;2022-09-09T04:59:52;93925.03;;;15.12;73.30
71107;BME280;58763;47.982;11.516;2022-09-09T05:02:18;93921.31;;;15.08;73.45
71107;BME280;58763;47.982;11.516;2022-09-09T05:04:43;93923.06;;;15.04;73.99
71107;BME280;58763;47.982;11.516;2022-09-09T05:07:09;93927.22;;;15.10;73.41
71107;BME280;58763;47.982;11.516;2022-09-09T05:09:34;93925.50;;;15.14;73.47
71107;BME280;58763;47.982;11.516;2022-09-09T05:12:00;93928.22;;;15.14;73.55
71107;BME280;58763;47.982;11.516;2022-09-09T05:14:26;93935.25;;;15.15;73.56
71107;BME280;58763;47.982;11.516;2022-09-09T05:16:52;93932.84;;;15.13;73.63
71107;BME280;58763;47.982;11.516;2022-09-09T05:19:17;93936.53;;;15.09;73.93
71107;BME280;58763;47.982;11.516;2022-09-09T05:21:45;93940.06;;;15.09;73.72
71107;BME280;58763;47.982;11.516;2022-09-09T05:24:11;93936.88;;;15.16;73.91
71107;BME280;58763;47.982;11.516;2022-09-09T05:26:36;93936.88;;;15.07;74.04
71107;BME280;58763;47.982;11.516;2022-09-09T05:29:02;93942.94;;;15.13;73.75
71107;BME280;58763;47.982;11.516;2022-09-09T05:31:29;93948.56;;;15.16;74.15
71107;BME280;58763;47.982;11.516;2022-09-09T05:33:55;93946.81;;;15.20;73.65
71107;BME280;58763;47.982;11.516;2022-09-09T05:36:22;93939.91;;;15.14;73.87
71107;BME280;58763;47.982;11.516;2022-09-09T05:38:48;93942.66;;;15.14;73.76
71107;BME280;58763;47.982;11.516;2022-09-09T05:41:14;93940.69;;;15.15;73.74
71107;BME280;58763;47.982;11.516;2022-09-09T05:43:41;93950.50;;;15.07;74.45
71107;BME280;58763;47.982;11.516;2022-09-09T05:46:11;93942.47;;;15.02;74.26
71107;BME280;58763;47.982;11.516;2022-09-09T05:48:39;93953.66;;;15.01;74.71
71107;BME280;58763;47.982;11.516;2022-09-09T05:51:08;93959.75;;;15.06;74.67
71107;BME280;58763;47.982;11.516;2022-09-09T05:53:34;93955.91;;;14.99;74.61
71107;BME280;58763;47.982;11.516;2022-09-09T05:58:25;93961.03;;;15.00;75.00
71107;BME280;58763;47.982;11.516;2022-09-09T06:00:50;93965.50;;;14.88;75.96
71107;BME280;58763;47.982;11.516;2022-09-09T06:03:16;93964.22;;;14.85;76.17
71107;BME280;58763;47.982;11.516;2022-09-09T06:05:42;93971.34;;;14.64;77.00
71107;BME280;58763;47.982;11.516;2022-09-09T06:08:07;93970.88;;;14.62;77.32
71107;BME280;58763;47.982;11.516;2022-09-09T06:10:33;93966.72;;;14.65;77.53
71107;BME280;58763;47.982;11.516;2022-09-09T06:12:59;93961.44;;;14.68;77.37
71107;BME280;58763;47.982;11.516;2022-09-09T06:15:25;93961.78;;;14.75;77.77
71107;BME280;58763;47.982;11.516;2022-09-09T06:17:55;93953.94;;;14.74;77.64
71107;BME280;58763;47.982;11.516;2022-09-09T06:20:21;93948.16;;;14.75;77.75
71107;BME280;58763;47.982;11.516;2022-09-09T06:22:47;93949.44;;;14.78;77.33
71107;BME280;58763;47.982;11.516;2022-09-09T06:25:13;93954.13;;;14.86;77.51
71107;BME280;58763;47.982;11.516;2022-09-09T06:27:39;93953.50;;;14.89;77.28
71107;BME280;58763;47.982;11.516;2022-09-09T06:30:06;93958.13;;;14.88;77.98
71107;BME280;58763;47.982;11.516;2022-09-09T06:32:32;93956.03;;;14.85;78.50
71107;BME280;58763;47.982;11.516;2022-09-09T06:34:59;93960.66;;;14.76;78.74
71107;BME280;58763;47.982;11.516;2022-09-09T06:37:26;93961.47;;;14.85;79.76
71107;BME280;58763;47.982;11.516;2022-09-09T06:39:52;93959.38;;;14.82;79.02
71107;BME280;58763;47.982;11.516;2022-09-09T06:42:19;93966.78;;;14.90;78.72
71107;BME280;58763;47.982;11.516;2022-09-09T06:44:45;93971.09;;;14.83;78.71
71107;BME280;58763;47.982;11.516;2022-09-09T06:47:10;93968.38;;;14.83;78.75
71107;BME280;58763;47.982;11.516;2022-09-09T06:49:36;93969.38;;;14.95;79.26
71107;BME280;58763;47.982;11.516;2022-09-09T06:52:01;93977.72;;;15.07;79.14
71107;BME280;58763;47.982;11.516;2022-09-09T06:54:27;93974.81;;;15.04;78.84
71107;BME280;58763;47.982;11.516;2022-09-09T06:56:53;93977.81;;;14.85;79.62
71107;BME280;58763;47.982;11.516;2022-09-09T06:59:19;93977.66;;;14.82;80.00
71107;BME280;58763;47.982;11.516;2022-09-09T07:01:45;93983.72;;;14.79;80.11
71107;BME280;58763;47.982;11.516;2022-09-09T07:04:10;93985.19;;;14.85;80.09
71107;BME280;58763;47.982;11.516;2022-09-09T07:06:38;93982.16;;;14.86;79.77
71107;BME280;58763;47.982;11.516;2022-09-09T07:09:07;93977.66;;;14.82;80.04
71107;BME280;58763;47.982;11.516;2022-09-09T07:11:40;93985.97;;;14.77;79.69
71107;BME280;58763;47.982;11.516;2022-09-09T07:14:07;93984.50;;;14.71;79.75
71107;BME280;58763;47.982;11.516;2022-09-09T07:16:33;93989.47;;;14.77;79.77
71107;BME280;58763;47.982;11.516;2022-09-09T07:19:00;94009.53;;;14.81;79.63
71107;BME280;58763;47.982;11.516;2022-09-09T07:21:26;94016.75;;;14.46;82.01
71107;BME280;58763;47.982;11.516;2022-09-09T07:23:53;94018.13;;;14.35;83.33
71107;BME280;58763;47.982;11.516;2022-09-09T07:26:20;94013.25;;;14.54;83.03
71107;BME280;58763;47.982;11.516;2022-09-09T07:28:46;94017.75;;;14.59;81.63
71107;BME280;58763;47.982;11.516;2022-09-09T07:31:14;94014.09;;;14.64;81.29
71107;BME280;58763;47.982;11.516;2022-09-09T07:33:40;94012.66;;;14.66;81.52
71107;BME280;58763;47.982;11.516;2022-09-09T07:36:13;94016.50;;;14.65;81.69
71107;BME280;58763;47.982;11.516;2022-09-09T07:38:40;94024.47;;;14.53;82.26
71107;BME280;58763;47.982;11.516;2022-09-09T07:41:10;94033.72;;;14.52;83.14
71107;BME280;58763;47.982;11.516;2022-09-09T07:43:47;94024.63;;;14.57;82.95
71107;BME280;58763;47.982;11.516;2022-09-09T07:46:14;94039.56;;;14.68;82.35
71107;BME280;58763;47.982;11.516;2022-09-09T07:48:50;94042.31;;;14.68;82.76
71107;BME280;58763;47.982;11.516;2022-09-09T07:51:21;94038.66;;;14.81;82.02
71107;BME280;58763;47.982;11.516;2022-09-09T07:53:48;94038.19;;;14.87;82.64
71107;BME280;58763;47.982;11.516;2022-09-09T07:56:17;94045.25;;;14.88;82.13
71107;BME280;58763;47.982;11.516;2022-09-09T07:58:45;94047.03;;;14.93;82.13
71107;BME280;58763;47.982;11.516;2022-09-09T08:01:14;94036.94;;;14.93;82.32
71107;BME280;58763;47.982;11.516;2022-09-09T08:03:42;94032.97;;;15.08;81.76
71107;BME280;58763;47.982;11.516;2022-09-09T08:06:10;94037.97;;;15.14;81.42
71107;BME280;58763;47.982;11.516;2022-09-09T08:08:36;94043.44;;;15.23;80.34
71107;BME280;58763;47.982;11.516;2022-09-09T08:11:14;94049.06;;;15.35;80.45
71107;BME280;58763;47.982;11.516;2022-09-09T08:13:42;94048.25;;;15.35;80.40
71107;BME280;58763;47.982;11.516;2022-09-09T08:16:13;94050.66;;;15.36;80.16
71107;BME280;58763;47.982;11.516;2022-09-09T08:18:39;94060.13;;;15.39;80.10
71107;BME280;58763;47.982;11.516;2022-09-09T08:21:10;94063.13;;;15.29;79.83
71107;BME280;58763;47.982;11.516;2022-09-09T08:23:38;94065.06;;;15.37;80.11
71107;BME280;58763;47.982;11.516;2022-09-09T08:26:15;94070.38;;;15.42;80.32
71107;BME280;58763;47.982;11.516;2022-09-09T08:28:42;94069.47;;;15.55;79.96
71107;BME280;58763;47.982;11.516;2022-09-09T08:31:14;94067.06;;;15.53;79.46
71107;BME280;58763;47.982;11.516;2022-09-09T08:33:41;94072.38;;;15.67;78.81
71107;BME280;58763;47.982;11.516;2022-09-09T08:36:09;94063.53;;;15.61;77.93
71107;BME280;58763;47.982;11.516;2022-09-09T08:38:35;94067.88;;;15.71;77.64
71107;BME280;58763;47.982;11.516;2022-09-09T08:41:12;94072.88;;;15.77;77.36
71107;BME280;58763;47.982;11.516;2022-09-09T08:43:46;94070.44;;;15.76;76.91
71107;BME280;58763;47.982;11.516;2022-09-09T08:46:27;94066.91;;;15.67;77.46
71107;BME280;58763;47.982;11.516;2022-09-09T08:51:42;94072.03;;;15.68;77.78
71107;BME280;58763;47.982;11.516;2022-09-09T08:54:08;94074.94;;;15.63;77.41
71107;BME280;58763;47.982;11.516;2022-09-09T08:56:35;94074.44;;;15.53;77.50
71107;BME280;58763;47.982;11.516;2022-09-09T08:59:02;94061.44;;;15.50;77.50
71107;BME280;58763;47.982;11.516;2022-09-09T09:01:42;94067.84;;;15.45;77.27
71107;BME280;58763;47.982;11.516;2022-09-09T09:04:37;94064.19;;;15.58;77.21
71107;BME280;58763;47.982;11.516;2022-09-09T09:10:04;94065.28;;;15.57;77.56
71107;BME280;58763;47.982;11.516;2022-09-09T09:12:40;94072.84;;;15.60;78.30
71107;BME280;58763;47.982;11.516;2022-09-09T09:15:25;94075.09;;;15.67;77.82
71107;BME280;58763;47.982;11.516;2022-09-09T09:17:53;94078.97;;;15.66;77.05
71107;BME280;58763;47.982;11.516;2022-09-09T09:20:37;94082.31;;;15.63;76.69
71107;BME280;58763;47.982;11.516;2022-09-09T09:23:15;94077.63;;;15.55;77.01
71107;BME280;58763;47.982;11.516;2022-09-09T09:25:43;94083.91;;;15.64;76.59
71107;BME280;58763;47.982;11.516;2022-09-09T09:28:16;94081.66;;;15.49;76.86
71107;BME280;58763;47.982;11.516;2022-09-09T09:31:03;94077.66;;;15.63;76.51
71107;BME280;58763;47.982;11.516;2022-09-09T09:33:46;94083.13;;;15.63;77.30
71107;BME280;58763;47.982;11.516;2022-09-09T09:36:14;94083.41;;;15.53;76.57
71107;BME280;58763;47.982;11.516;2022-09-09T09:38:53;94086.13;;;15.53;77.24
71107;BME280;58763;47.982;11.516;2022-09-09T09:41:32;94082.47;;;15.49;77.43
71107;BME280;58763;47.982;11.516;2022-09-09T09:43:59;94084.22;;;15.54;77.72
71107;BME280;58763;47.982;11.516;2022-09-09T09:46:26;94072.78;;;15.43;78.20
71107;BME280;58763;47.982;11.516;2022-09-09T09:48:59;94080.03;;;15.48;77.80
71107;BME280;58763;47.982;11.516;2022-09-09T09:51:26;94080.47;;;15.41;78.07
71107;BME280;58763;47.982;11.516;2022-09-09T09:53:53;94079.06;;;15.52;78.19
71107;BME280;58763;47.982;11.516;2022-09-09T09:56:27;94083.28;;;15.58;77.77
71107;BME280;58763;47.982;11.516;2022-09-09T09:58:58;94081.16;;;15.55;77.75
71107;BME280;58763;47.982;11.516;2022-09-09T10:01:32;94076.06;;;15.62;77.43
71107;BME280;58763;47.982;11.516;2022-09-09T10:06:43;94094.03;;;15.80;77.44
71107;BME280;58763;47.982;11.516;2022-09-09T10:11:57;94088.25;;;15.90;76.78
71107;BME280;58763;47.982;11.516;2022-09-09T10:17:54;94085.34;;;16.13;75.96
71107;BME280;58763;47.982;11.516;2022-09-09T10:31:35;94086.28;;;16.34;73.95
71107;BME280;58763;47.982;11.516;2022-09-09T10:37:14;94099.63;;;16.27;73.51
71107;BME280;58763;47.982;11.516;2022-09-09T10:39:48;94094.31;;;16.39;74.36
71107;BME280;58763;47.982;11.516;2022-09-09T10:42:18;94089.97;;;16.46;73.80
71107;BME280;58763;47.982;11.516;2022-09-09T10:45:02;94086.78;;;16.44;72.18
71107;BME280;58763;47.982;11.516;2022-09-09T10:50:48;94088.25;;;16.33;72.91
71107;BME280;58763;47.982;11.516;2022-09-09T10:56:08;94091.59;;;16.39;73.38
71107;BME280;58763;47.982;11.516;2022-09-09T10:58:42;94087.44;;;16.16;74.19
71107;BME280;58763;47.982;11.516;2022-09-09T11:01:31;94085.66;;;16.20;73.72
71107;BME280;58763;47.982;11.516;2022-09-09T11:04:06;94093.38;;;16.18;73.91
71107;BME280;58763;47.982;11.516;2022-09-09T11:06:39;94089.38;;;16.07;73.97
71107;BME280;58763;47.982;11.516;2022-09-09T11:09:13;94093.41;;;16.01;73.99
71107;BME280;58763;47.982;11.516;2022-09-09T11:11:46;94088.91;;;16.05;75.20
71107;BME280;58763;47.982;11.516;2022-09-09T11:16:50;94090.00;;;16.21;74.69
71107;BME280;58763;47.982;11.516;2022-09-09T11:19:34;94092.09;;;16.24;75.26
71107;BME280;58763;47.982;11.516;2022-09-09T11:22:36;94092.53;;;16.43;75.08
71107;BME280;58763;47.982;11.516;2022-09-09T11:25:26;94080.00;;;16.50;74.76
71107;BME280;58763;47.982;11.516;2022-09-09T11:36:41;94091.66;;;16.85;70.93
71107;BME280;58763;47.982;11.516;2022-09-09T11:41:38;94084.53;;;16.55;71.70
71107;BME280;58763;47.982;11.516;2022-09-09T11:44:19;94079.38;;;16.62;71.67
71107;BME280;58763;47.982;11.516;2022-09-09T11:46:50;94081.31;;;16.62;71.41
71107;BME280;58763;47.982;11.516;2022-09-09T11:49:40;94082.56;;;16.73;71.09
71107;BME280;58763;47.982;11.516;2022-09-09T11:55:33;94083.13;;;16.95;71.16
71107;BME280;58763;47.982;11.516;2022-09-09T11:58:15;94075.44;;;16.89;71.00
71107;BME280;58763;47.982;11.516;2022-09-09T12:00:45;94079.97;;;16.85;70.26
71107;BME280;58763;47.982;11.516;2022-09-09T12:03:48;94083.28;;;16.90;69.92
71107;BME280;58763;47.982;11.516;2022-09-09T12:06:19;94079.06;;;17.01;69.48
71107;BME280;58763;47.982;11.516;2022-09-09T12:08:57;94080.63;;;17.11;69.56
71107;BME280;58763;47.982;11.516;2022-09-09T12:11:25;94082.19;;;17.20;69.45
71107;BME280;58763;47.982;11.516;2022-09-09T12:13:53;94081.22;;;17.25;69.22
71107;BME280;58763;47.982;11.516;2022-09-09T12:16:36;94091.38;;;17.24;69.64
71107;BME280;58763;47.982;11.516;2022-09-09T12:19:22;94094.75;;;17.21;68.96
71107;BME280;58763;47.982;11.516;2022-09-09T12:26:58;94081.78;;;17.10;69.14
71107;BME280;58763;47.982;11.516;2022-09-09T12:29:44;94079.91;;;16.93;69.17
71107;BME280;58763;47.982;11.516;2022-09-09T12:32:15;94084.75;;;16.96;69.71
71107;BME280;58763;47.982;11.516;2022-09-09T12:34:52;94083.00;;;16.83;70.05
71107;BME280;58763;47.982;11.516;2022-09-09T12:37:33;94076.88;;;16.86;69.49
71107;BME280;58763;47.982;11.516;2022-09-09T12:40:02;94076.09;;;16.86;70.68
71107;BME280;58763;47.982;11.516;2022-09-09T12:42:29;94066.59;;;16.92;69.87
71107;BME280;58763;47.982;11.516;2022-09-09T12:44:59;94064.19;;;16.90;70.45
71107;BME280;58763;47.982;11.516;2022-09-09T12:47:40;94072.03;;;17.00;70.48
71107;BME280;58763;47.982;11.516;2022-09-09T12:50:17;94070.09;;;17.01;70.16
71107;BME280;58763;47.982;11.516;2022-09-09T12:52:44;94061.75;;;16.97;70.70
71107;BME280;58763;47.982;11.516;2022-09-09T12:55:22;94068.44;;;17.08;70.59
71107;BME280;58763;47.982;11.516;2022-09-09T12:57:51;94062.84;;;17.05;70.58
71107;BME280;58763;47.982;11.516;2022-09-09T13:00:24;94057.88;;;16.98;71.10
71107;BME280;58763;47.982;11.516;2022-09-09T13:02:55;94057.91;;;16.90;71.30
71107;BME280;58763;47.982;11.516;2022-09-09T13:05:26;94046.50;;;16.88;71.46
71107;BME280;58763;47.982;11.516;2022-09-09T13:07:52;94056.84;;;16.82;71.11
71107;BME280;58763;47.982;11.516;2022-09-09T13:10:29;94044.56;;;16.59;70.46
71107;BME280;58763;47.982;11.516;2022-09-09T13:12:55;94047.44;;;16.54;71.42
71107;BME280;58763;47.982;11.516;2022-09-09T13:15:24;94040.22;;;16.49;70.60
71107;BME280;58763;47.982;11.516;2022-09-09T13:17:57;94037.00;;;16.47;70.89
71107;BME280;58763;47.982;11.516;2022-09-09T13:20:24;94039.59;;;16.35;71.83
71107;BME280;58763;47.982;11.516;2022-09-09T13:22:51;94039.75;;;16.39;72.59
71107;BME280;58763;47.982;11.516;2022-09-09T13:28:00;94026.88;;;16.48;73.17
71107;BME280;58763;47.982;11.516;2022-09-09T13:30:35;94038.13;;;16.55;72.48
71107;BME280;58763;47.982;11.516;2022-09-09T13:35:35;94036.19;;;16.55;71.06
71107;BME280;58763;47.982;11.516;2022-09-09T13:38:14;94037.78;;;16.48;71.08
71107;BME280;58763;47.982;11.516;2022-09-09T13:40:40;94033.34;;;16.35;71.47
71107;BME280;58763;47.982;11.516;2022-09-09T13:43:22;94026.47;;;16.20;72.92
71107;BME280;58763;47.982;11.516;2022-09-09T13:45:56;94029.97;;;16.29;72.71
71107;BME280;58763;47.982;11.516;2022-09-09T13:48:23;94032.06;;;16.32;72.19
71107;BME280;58763;47.982;11.516;2022-09-09T13:50:57;94026.91;;;16.39;72.42
71107;BME280;58763;47.982;11.516;2022-09-09T13:53:22;94027.25;;;16.38;71.55
71107;BME280;58763;47.982;11.516;2022-09-09T13:55:48;94020.19;;;16.20;71.98
71107;BME280;58763;47.982;11.516;2022-09-09T13:58:16;94016.22;;;16.17;72.19
71107;BME280;58763;47.982;11.516;2022-09-09T14:00:44;94019.56;;;16.23;73.01
71107;BME280;58763;47.982;11.516;2022-09-09T14:03:10;94014.25;;;16.18;72.55
71107;BME280;58763;47.982;11.516;2022-09-09T14:05:36;94012.19;;;16.23;72.67
71107;BME280;58763;47.982;11.516;2022-09-09T14:08:06;94020.50;;;16.27;72.61
71107;BME280;58763;47.982;11.516;2022-09-09T14:10:31;94023.13;;;16.15;72.68
71107;BME280;58763;47.982;11.516;2022-09-09T14:12:57;94011.56;;;16.09;73.75
71107;BME280;58763;47.982;11.516;2022-09-09T14:15:23;94018.59;;;16.19;73.78
71107;BME280;58763;47.982;11.516;2022-09-09T14:17:49;94014.41;;;16.30;73.28
71107;BME280;58763;47.982;11.516;2022-09-09T14:20:14;94015.72;;;16.24;72.14
71107;BME280;58763;47.982;11.516;2022-09-09T14:22:41;94020.16;;;16.37;72.62
71107;BME280;58763;47.982;11.516;2022-09-09T14:25:07;94028.19;;;16.42;71.97
71107;BME280;58763;47.982;11.516;2022-09-09T14:27:33;94024.31;;;16.43;70.99
71107;BME280;58763;47.982;11.516;2022-09-09T14:29:59;94022.09;;;16.45;70.74
71107;BME280;58763;47.982;11.516;2022-09-09T14:32:26;94034.28;;;16.39;70.72
71107;BME280;58763;47.982;11.516;2022-09-09T14:34:52;94028.81;;;16.47;70.17
71107;BME280;58763;47.982;11.516;2022-09-09T14:37:18;94028.00;;;16.47;69.85
71107;BME280;58763;47.982;11.516;2022-09-09T14:39:44;94019.66;;;16.43;71.11